Home > Products > Valid Products > MTR

000
SAUS43 KABR 052100 COR
MTR8D3
METAR K8D3 052056Z AUTO 25011G19KT 29/05 A2987 RMK AO1 SLP103 6////
T02940050





000
SAUS43 KABR 052100 COR
MTR8D3
METAR K8D3 052056Z AUTO 25011G19KT 29/05 A2987 RMK AO1 SLP103 6////
T02940050





000
SAUS43 KABR 052058 COR
MTR8D3
METAR K8D3 052056Z AUTO 25011G19KT 29/05 A2987 RMK AO1 SLP103 6////
T02940050





000
SAUS43 KABR 052058 COR
MTR8D3
METAR K8D3 052056Z AUTO 25011G19KT 29/05 A2987 RMK AO1 SLP103 6////
T02940050





000
SAUS43 KABR 051957
MTR8D3
METAR K8D3 051956Z AUTO 25012KT 30/05 A2988 RMK AO1 SLP105 T03000050
$





000
SAUS43 KABR 051957
MTR8D3
METAR K8D3 051956Z AUTO 25012KT 30/05 A2988 RMK AO1 SLP105 T03000050
$





000
SAUS43 KABR 051858
MTR8D3
METAR K8D3 051856Z AUTO 27014G22KT 28/05 A2989 RMK AO1 PK WND
26026/1803 SLP109 T02830050





000
SAUS43 KABR 051758
MTR8D3
METAR K8D3 051756Z AUTO 27017G23KT 27/06 A2990 RMK AO1 SLP116
T02720061 10272 20150 56014





000
SAUS43 KABR 051758
MTR8D3
METAR K8D3 051756Z AUTO 27017G23KT 27/06 A2990 RMK AO1 SLP116
T02720061 10272 20150 56014





000
SAUS43 KABR 051657
MTR8D3
METAR K8D3 051656Z AUTO 27017G27KT 26/06 A2991 RMK AO1 PK WND
27027/1620 SLP121 T02610056





000
SAUS43 KABR 051657
MTR8D3
METAR K8D3 051656Z AUTO 27017G27KT 26/06 A2991 RMK AO1 PK WND
27027/1620 SLP121 T02610056





000
SAUS43 KABR 051557
MTR8D3
METAR K8D3 051556Z AUTO 26016G26KT 24/05 A2992 RMK AO1 PK WND
27026/1551 SLP124 T02440050





000
SAUS43 KABR 051457
MTR8D3
METAR K8D3 051456Z AUTO VRB04KT 23/05 A2994 RMK AO1 SLP131 T02280050
53001





000
SAUS43 KABR 051457
MTR8D3
METAR K8D3 051456Z AUTO VRB04KT 23/05 A2994 RMK AO1 SLP131 T02280050
53001





000
SAUS43 KABR 051357
MTR8D3
METAR K8D3 051356Z AUTO 26010KT 20/04 A2994 RMK AO1 SLP128 T02000044





000
SAUS43 KABR 051257
MTR8D3
METAR K8D3 051256Z AUTO 27010KT 18/03 A2994 RMK AO1 SLP128 T01780033





000
SAUS43 KABR 051257
MTR8D3
METAR K8D3 051256Z AUTO 27010KT 18/03 A2994 RMK AO1 SLP128 T01780033





000
SAUS43 KABR 051157
MTR8D3
METAR K8D3 051156Z AUTO 24005KT 15/02 A2994 RMK AO1 SLP128 T01500017
10150 20072 53000





000
SAUS43 KABR 051157
MTR8D3
METAR K8D3 051156Z AUTO 24005KT 15/02 A2994 RMK AO1 SLP128 T01500017
10150 20072 53000





000
SAUS43 KABR 051057
MTR8D3
METAR K8D3 051056Z AUTO 23007KT 14/00 A2994 RMK AO1 SLP128 T01440000





000
SAUS43 KABR 051057
MTR8D3
METAR K8D3 051056Z AUTO 23007KT 14/00 A2994 RMK AO1 SLP128 T01440000





000
SAUS43 KABR 050957
MTR8D3
METAR K8D3 050956Z AUTO 17005KT 10/00 A2994 RMK AO1 SLP131 T01000000





000
SAUS43 KABR 050857
MTR8D3
METAR K8D3 050856Z AUTO 19005KT 10/00 A2994 RMK AO1 SLP133 T01000000
58012





000
SAUS43 KABR 050757
MTR8D3
METAR K8D3 050756Z AUTO 22007KT 09/01 A2995 RMK AO1 SLP136 T00940006





000
SAUS43 KABR 050757
MTR8D3
METAR K8D3 050756Z AUTO 22007KT 09/01 A2995 RMK AO1 SLP136 T00940006





000
SAUS43 KABR 050657
MTR8D3
METAR K8D3 050656Z AUTO 22006KT 08/01 A2997 RMK AO1 SLP145 T00780006





000
SAUS43 KABR 050557
MTR8D3
METAR K8D3 050556Z AUTO 22006KT 08/01 A2998 RMK AO1 SLP148 T00830011
10211 20078 402170044 58004





000
SAUS43 KABR 050557
MTR8D3
METAR K8D3 050556Z AUTO 22006KT 08/01 A2998 RMK AO1 SLP148 T00830011
10211 20078 402170044 58004





000
SAUS43 KABR 050457
MTR8D3
METAR K8D3 050456Z AUTO 24005KT 08/00 A2998 RMK AO1 SLP151 T00830000





000
SAUS43 KABR 050357
MTR8D3
METAR K8D3 050356Z AUTO 25004KT 10/01 A2998 RMK AO1 SLP152 T01000011





000
SAUS43 KABR 050258
MTR8D3
METAR K8D3 050256Z AUTO 00000KT 11/02 A2999 RMK AO1 SLP154 T01110017
53002





000
SAUS43 KABR 050159 COR
MTR8D3
METAR K8D3 050156Z AUTO 00000KT 17/M02 A2998 RMK AO1 SLP148
T01671022





000
SAUS43 KABR 050159 COR
MTR8D3
METAR K8D3 050156Z AUTO 00000KT 17/M02 A2998 RMK AO1 SLP148
T01671022





000
SAUS43 KABR 050158 COR
MTR8D3
METAR K8D3 050156Z AUTO 00000KT 17/M02 A2998 RMK AO1 SLP148
T01671022





000
SAUS43 KABR 050158 COR
MTR8D3
METAR K8D3 050156Z AUTO 00000KT 17/M02 A2998 RMK AO1 SLP148
T01671022





000
SAUS43 KABR 050057
MTR8D3
METAR K8D3 050056Z AUTO 01005KT 18/M01 A2998 RMK AO1 SLP149
T01831006





000
SAUS43 KABR 042358
MTR8D3
METAR K8D3 042356Z AUTO 36007KT 21/M03 A2998 RMK AO1 SLP150
T02111033 10217 20178 56009





000
SAUS43 KABR 042358
MTR8D3
METAR K8D3 042356Z AUTO 36007KT 21/M03 A2998 RMK AO1 SLP150
T02111033 10217 20178 56009





000
SAUS43 KABR 042257
MTR8D3
METAR K8D3 042256Z AUTO 02008G16KT 21/M04 A2999 RMK AO1 SLP153
T02111039





000
SAUS43 KABR 042257
MTR8D3
METAR K8D3 042256Z AUTO 02008G16KT 21/M04 A2999 RMK AO1 SLP153
T02111039





000
SAUS43 KABR 042159 COR
MTR8D3
METAR K8D3 042156Z AUTO 01009KT 22/M03 A3000 RMK AO1 SLP156
T02171028





000
SAUS43 KABR 042158 COR
MTR8D3
METAR K8D3 042156Z AUTO 01009KT 22/M03 A3000 RMK AO1 SLP156
T02171028





000
SAUS43 KABR 042158 COR
MTR8D3
METAR K8D3 042156Z AUTO 01009KT 22/M03 A3000 RMK AO1 SLP156
T02171028





000
SAUS43 KABR 042157
MTR8D3
METAR K8D3 042156Z AUTO 01009KT 22/M03 A3000 RMK AO1 SLP156
T02171028





000
SAUS43 KABR 042157
MTR8D3
METAR K8D3 042156Z AUTO 01009KT 22/M03 A3000 RMK AO1 SLP156
T02171028





000
SAUS43 KABR 042058
MTR8D3
METAR K8D3 042056Z AUTO 01011G18KT 21/M03 A3001 RMK AO1 SLP160
T02111033 56015





000
SAUS43 KABR 042058
MTR8D3
METAR K8D3 042056Z AUTO 01011G18KT 21/M03 A3001 RMK AO1 SLP160
T02111033 56015





000
SAUS43 KABR 041957
MTR8D3
METAR K8D3 041956Z AUTO 36012G18KT 21/M03 A3002 RMK AO1 SLP164
T02061033





000
SAUS43 KABR 041857
MTR8D3
METAR K8D3 041856Z AUTO 01011KT 19/M03 A3004 RMK AO1 SLP170
T01941033





000
SAUS43 KABR 041857
MTR8D3
METAR K8D3 041856Z AUTO 01011KT 19/M03 A3004 RMK AO1 SLP170
T01941033





000
SAUS43 KABR 041757
MTR8D3
METAR K8D3 041756Z AUTO 36016G21KT 18/M01 A3006 RMK AO1 SLP176
T01831011 10183 20056 58010





000
SAUS43 KABR 041757
MTR8D3
METAR K8D3 041756Z AUTO 36016G21KT 18/M01 A3006 RMK AO1 SLP176
T01831011 10183 20056 58010





000
SAUS43 KABR 041657
MTR8D3
METAR K8D3 041656Z AUTO 35015G21KT 17/01 A3007 RMK AO1 SLP182
T01720011





000
SAUS43 KABR 041557
MTR8D3
METAR K8D3 041556Z AUTO 36012KT 15/03 A3008 RMK AO1 SLP183 T01500028





000
SAUS43 KABR 041458
MTR8D3
METAR K8D3 041456Z AUTO 35011KT 13/03 A3009 RMK AO1 SLP187 T01280028
51011





000
SAUS43 KABR 041458
MTR8D3
METAR K8D3 041456Z AUTO 35011KT 13/03 A3009 RMK AO1 SLP187 T01280028
51011





000
SAUS43 KABR 041357
MTR8D3
METAR K8D3 041356Z AUTO 33011KT 11/02 A3008 RMK AO1 SLP186 T01060017





000
SAUS43 KABR 041357
MTR8D3
METAR K8D3 041356Z AUTO 33011KT 11/02 A3008 RMK AO1 SLP186 T01060017





000
SAUS43 KABR 041257
MTR8D3
METAR K8D3 041256Z AUTO 34013KT 08/01 A3008 RMK AO1 SLP183 T00830006





000
SAUS43 KABR 041257
MTR8D3
METAR K8D3 041256Z AUTO 34013KT 08/01 A3008 RMK AO1 SLP183 T00830006





000
SAUS43 KABR 041157
MTR8D3
METAR K8D3 041156Z AUTO 33006KT 05/00 A3005 RMK AO1 SLP175 T00500000
10083 20044 53013





000
SAUS43 KABR 041057
MTR8D3
METAR K8D3 041056Z AUTO 33008KT 04/M01 A3004 RMK AO1 SLP170
T00441006





000
SAUS43 KABR 041057
MTR8D3
METAR K8D3 041056Z AUTO 33008KT 04/M01 A3004 RMK AO1 SLP170
T00441006





000
SAUS43 KABR 040957
MTR8D3
METAR K8D3 040956Z AUTO 32009KT 05/M01 A3003 RMK AO1 SLP165
T00501006





000
SAUS43 KABR 040857
MTR8D3
METAR K8D3 040856Z AUTO 33009KT 06/M01 A3002 RMK AO1 SLP160
T00561006 51014





000
SAUS43 KABR 040857
MTR8D3
METAR K8D3 040856Z AUTO 33009KT 06/M01 A3002 RMK AO1 SLP160
T00561006 51014





000
SAUS43 KABR 040758
MTR8D3
METAR K8D3 040756Z AUTO 34010KT 07/M01 A3000 RMK AO1 SLP154
T00671006





000
SAUS43 KABR 040657
MTR8D3
METAR K8D3 040656Z AUTO 33009KT 07/M01 A2999 RMK AO1 SLP150
T00721006





000
SAUS43 KABR 040600 COR
MTR8D3
METAR K8D3 040556Z AUTO 34011KT 08/00 A2997 RMK AO1 SLP145 T00830000
10200 20078 402560044 51020





000
SAUS43 KABR 040558 COR
MTR8D3
METAR K8D3 040556Z AUTO 34011KT 08/00 A2997 RMK AO1 SLP145 T00830000
10200 20078 402560044 51020





000
SAUS43 KABR 040558 COR
MTR8D3
METAR K8D3 040556Z AUTO 34011KT 08/00 A2997 RMK AO1 SLP145 T00830000
10200 20078 402560044 51020





000
SAUS43 KABR 040557
MTR8D3
METAR K8D3 040556Z AUTO 34011KT 08/00 A2997 RMK AO1 SLP145 T00830000
10200 20078 402560044 51020





000
SAUS43 KABR 040557
MTR8D3
METAR K8D3 040556Z AUTO 34011KT 08/00 A2997 RMK AO1 SLP145 T00830000
10200 20078 402560044 51020





000
SAUS43 KABR 040458
MTR8D3
METAR K8D3 040456Z AUTO 34010KT 09/M01 A2995 RMK AO1 SLP138
T00941006





000
SAUS43 KABR 040458
MTR8D3
METAR K8D3 040456Z AUTO 34010KT 09/M01 A2995 RMK AO1 SLP138
T00941006





000
SAUS43 KABR 040358
MTR8D3
METAR K8D3 040356Z AUTO 01012KT 12/M01 A2994 RMK AO1 SLP132
T01171006





000
SAUS43 KABR 040358
MTR8D3
METAR K8D3 040356Z AUTO 01012KT 12/M01 A2994 RMK AO1 SLP132
T01171006





000
SAUS43 KABR 040258
MTR8D3
METAR K8D3 040256Z AUTO 01017KT 14/M01 A2991 RMK AO1 SLP124
T01391011 51020





000
SAUS43 KABR 040258
MTR8D3
METAR K8D3 040256Z AUTO 01017KT 14/M01 A2991 RMK AO1 SLP124
T01391011 51020





000
SAUS43 KABR 040159 COR
MTR8D3
METAR K8D3 040156Z AUTO 02017KT 16/M02 A2989 RMK AO1 PK WND
02028/0058 SLP118 T01561017





000
SAUS43 KABR 040159 COR
MTR8D3
METAR K8D3 040156Z AUTO 02017KT 16/M02 A2989 RMK AO1 PK WND
02028/0058 SLP118 T01561017





000
SAUS43 KABR 040158 COR
MTR8D3
METAR K8D3 040156Z AUTO 02017KT 16/M02 A2989 RMK AO1 PK WND
02028/0058 SLP118 T01561017





000
SAUS43 KABR 040158 COR
MTR8D3
METAR K8D3 040156Z AUTO 02017KT 16/M02 A2989 RMK AO1 PK WND
02028/0058 SLP118 T01561017





000
SAUS43 KABR 040057
MTR8D3
METAR K8D3 040056Z AUTO 03020G29KT 18/M04 A2987 RMK AO1 PK WND
03031/0035 SLP112 T01781039





000
SAUS43 KABR 040057
MTR8D3
METAR K8D3 040056Z AUTO 03020G29KT 18/M04 A2987 RMK AO1 PK WND
03031/0035 SLP112 T01781039





000
SAUS43 KABR 032357
MTR8D3
METAR K8D3 032356Z AUTO 02025G31KT 20/M04 A2985 RMK AO1 PK WND
36033/2301 SLP105 T02001039 10256 20200 51011





000
SAUS43 KABR 032259 COR
MTR8D3
METAR K8D3 032256Z AUTO 01022G33KT 21/M04 A2984 RMK AO1 PK WND
01035/2243 SLP101 T02111039





000
SAUS43 KABR 032259 COR
MTR8D3
METAR K8D3 032256Z AUTO 01022G33KT 21/M04 A2984 RMK AO1 PK WND
01035/2243 SLP101 T02111039





000
SAUS43 KABR 032258 COR
MTR8D3
METAR K8D3 032256Z AUTO 01022G33KT 21/M04 A2984 RMK AO1 PK WND
01035/2243 SLP101 T02111039





000
SAUS43 KABR 032157
MTR8D3
METAR K8D3 032156Z AUTO 36020G29KT 22/M04 A2983 RMK AO1 PK WND
36036/2139 SLP098 T02221039





000
SAUS43 KABR 032100 COR
MTR8D3
METAR K8D3 032056Z AUTO 01026G34KT 23/M04 A2982 RMK AO1 PK WND
01035/2024 SLP092 T02331039 55009





000
SAUS43 KABR 032058 COR
MTR8D3
METAR K8D3 032056Z AUTO 01026G34KT 23/M04 A2982 RMK AO1 PK WND
01035/2024 SLP092 T02331039 55009





000
SAUS43 KABR 032058 COR
MTR8D3
METAR K8D3 032056Z AUTO 01026G34KT 23/M04 A2982 RMK AO1 PK WND
01035/2024 SLP092 T02331039 55009





000
SAUS43 KABR 032000 COR
MTR8D3
METAR K8D3 031956Z AUTO 35026G35KT 24/02 A2980 RMK AO1 PK WND
34042/1915 SLP085 T02440022





000
SAUS43 KABR 031958 COR
MTR8D3
METAR K8D3 031956Z AUTO 35026G35KT 24/02 A2980 RMK AO1 PK WND
34042/1915 SLP085 T02440022





000
SAUS43 KABR 031857
MTR8D3
METAR K8D3 031856Z AUTO 33025G35KT 24/02 A2980 RMK AO1 PK WND
32044/1836 WSHFT 1836 SLP083 T02440022





000
SAUS43 KABR 031757
MTR8D3
METAR K8D3 031756Z AUTO 31015G22KT 22/06 A2984 RMK AO1 PK WND
31026/1731 SLP102 T02170056 10217 20083 58023





000
SAUS43 KABR 031757
MTR8D3
METAR K8D3 031756Z AUTO 31015G22KT 22/06 A2984 RMK AO1 PK WND
31026/1731 SLP102 T02170056 10217 20083 58023





000
SAUS43 KABR 031657
MTR8D3
METAR K8D3 031656Z AUTO 32015G21KT 20/04 A2987 RMK AO1 SLP112
T02000044





000
SAUS43 KABR 031657
MTR8D3
METAR K8D3 031656Z AUTO 32015G21KT 20/04 A2987 RMK AO1 SLP112
T02000044





000
SAUS43 KABR 031558
MTR8D3
METAR K8D3 031556Z AUTO 32014G22KT 18/06 A2990 RMK AO1 SLP123
T01830056





000
SAUS43 KABR 031458
MTR8D3
METAR K8D3 031456Z AUTO 29014G22KT 16/07 A2992 RMK AO1 SLP126
T01610072 58017





000
SAUS43 KABR 031358
MTR8D3
METAR K8D3 031356Z AUTO 29010KT 14/07 A2994 RMK AO1 SLP134 T01440067





000
SAUS43 KABR 031258
MTR8D3
METAR K8D3 031256Z AUTO 26006KT 11/06 A2995 RMK AO1 SLP139 T01110061





000
SAUS43 KABR 031258
MTR8D3
METAR K8D3 031256Z AUTO 26006KT 11/06 A2995 RMK AO1 SLP139 T01110061





000
SAUS43 KABR 031158
MTR8D3
METAR K8D3 031156Z AUTO 28003KT 08/04 A2997 RMK AO1 SLP146 T00830039
10083 20044 55002





000
SAUS43 KABR 031158
MTR8D3
METAR K8D3 031156Z AUTO 28003KT 08/04 A2997 RMK AO1 SLP146 T00830039
10083 20044 55002





000
SAUS43 KABR 031058
MTR8D3
METAR K8D3 031056Z AUTO 32003KT 08/03 A2997 RMK AO1 SLP145 T00780033





000
SAUS43 KABR 031058
MTR8D3
METAR K8D3 031056Z AUTO 32003KT 08/03 A2997 RMK AO1 SLP145 T00780033





000
SAUS43 KABR 030957
MTR8D3
METAR K8D3 030956Z AUTO 31004KT 05/02 A2997 RMK AO1 SLP147 T00500017





000
SAUS43 KABR 030857
MTR8D3
METAR K8D3 030856Z AUTO 30003KT 06/03 A2997 RMK AO1 SLP148 T00610028
58005





000
SAUS43 KABR 030857
MTR8D3
METAR K8D3 030856Z AUTO 30003KT 06/03 A2997 RMK AO1 SLP148 T00610028
58005





000
SAUS43 KABR 030757
MTR8D3
METAR K8D3 030756Z AUTO 30003KT 07/03 A2998 RMK AO1 SLP152 T00670028





000
SAUS43 KABR 030657
MTR8D3
METAR K8D3 030656Z AUTO 00000KT 07/03 A2999 RMK AO1 SLP153 T00670028





000
SAUS43 KABR 030557
MTR8D3
METAR K8D3 030556Z AUTO 33005KT 07/02 A2999 RMK AO1 SLP153 T00720022
10183 20072 402060039 51003





000
SAUS43 KABR 030557
MTR8D3
METAR K8D3 030556Z AUTO 33005KT 07/02 A2999 RMK AO1 SLP153 T00720022
10183 20072 402060039 51003





000
SAUS43 KABR 030457
MTR8D3
METAR K8D3 030456Z AUTO 00000KT 08/02 A2999 RMK AO1 SLP153 T00830022





000
SAUS43 KABR 030357
MTR8D3
METAR K8D3 030356Z AUTO 26003KT 08/03 A2999 RMK AO1 SLP154 T00830033





000
SAUS43 KABR 030257
MTR8D3
METAR K8D3 030256Z AUTO 30004KT 12/02 A2998 RMK AO1 SLP148 T01220022
51008





000
SAUS43 KABR 030158
MTR8D3
METAR K8D3 030156Z AUTO 33005KT 14/02 A2998 RMK AO1 SLP147 T01390022





000
SAUS43 KABR 030057
MTR8D3
METAR K8D3 030056Z AUTO 34007KT 17/01 A2997 RMK AO1 SLP146 T01720011





000
SAUS43 KABR 030057
MTR8D3
METAR K8D3 030056Z AUTO 34007KT 17/01 A2997 RMK AO1 SLP146 T01720011





000
SAUS43 KABR 022358
MTR8D3
METAR K8D3 022356Z AUTO 35004KT 18/00 A2996 RMK AO1 SLP141 T01780000
10206 20178 55008





000
SAUS43 KABR 022358
MTR8D3
METAR K8D3 022356Z AUTO 35004KT 18/00 A2996 RMK AO1 SLP141 T01780000
10206 20178 55008





000
SAUS43 KABR 022257
MTR8D3
METAR K8D3 022256Z AUTO 00000KT 19/M03 A2995 RMK AO1 SLP139
T01891028





000
SAUS43 KABR 022257
MTR8D3
METAR K8D3 022256Z AUTO 00000KT 19/M03 A2995 RMK AO1 SLP139
T01891028





000
SAUS43 KABR 022157
MTR8D3
METAR K8D3 022156Z AUTO 00000KT 19/M03 A2996 RMK AO1 SLP142
T01891033





    US Dept of Commerce
    National Oceanic and Atmospheric Administration
    National Weather Service
    1325 East West Highway
    Silver Spring, MD 20910
    Page Author: NWS Internet Services Team
Disclaimer
Information Quality
Credits
Glossary
Privacy Policy
Freedom of Information Act (FOIA)
About Us
Career Opportunities